Raduzhny, Russia
Current Conditions -  °F | °C
As of 1:30 PM on Sunday 21 Dec 2014 (Local Time) from USNN Reporting Station
Few Clouds Few Clouds  
Wind Chill:   Ceiling: Unl
Heat Index: 16°   Visibility: 6mi
Dew Point: 10°   Wind: 9mph
Humidity: 79%   Direction: 180°S
Pressure: 29.8"   Gusts: NA
Location:  62.16°N, 77.31°E
Report Text: USNN 210830Z 18004MPS 9000 FEW009 M09/M12 Q1009 NOSIG RMKQFE752 21450240
Loading
Personal Weather Stations






























Interactive Weather Map New forecast layout! Learn more

10-Day Weather Forecast

Advertisements
Track Severe Weather on mobile